createdAt,value
2019-02-04T00:01:46.372Z,96.60
2019-02-04T00:06:37.816Z,97.70
2019-02-04T00:11:29.215Z,96.50
2019-02-04T00:16:20.585Z,96.20
2019-02-04T00:21:11.985Z,96.00
2019-02-04T00:26:03.378Z,96.50
2019-02-04T00:30:54.781Z,97.70
2019-02-04T00:35:46.625Z,95.10
2019-02-04T00:40:39.685Z,95.20
2019-02-04T00:45:31.184Z,94.60
2019-02-04T00:50:22.767Z,95.30
2019-02-04T00:55:14.614Z,96.50
2019-02-04T01:00:05.372Z,97.80
2019-02-04T01:04:56.728Z,97.20
2019-02-04T01:09:48.292Z,97.30
2019-02-04T01:14:39.502Z,96.00
2019-02-04T01:19:30.967Z,97.20
2019-02-04T01:24:22.288Z,98.40
2019-02-04T01:29:13.833Z,98.80
2019-02-04T01:34:05.479Z,98.60
2019-02-04T01:38:56.497Z,97.60
2019-02-04T01:43:47.802Z,99.20
2019-02-04T01:48:39.353Z,98.40
2019-02-04T01:53:30.590Z,99.50
2019-02-04T01:58:24.258Z,98.80
2019-02-04T02:03:17.909Z,99.30
2019-02-04T02:08:09.410Z,98.90
2019-02-04T02:13:02.939Z,96.10
2019-02-04T02:17:54.412Z,96.60
2019-02-04T02:22:45.793Z,98.00
2019-02-04T02:27:37.277Z,98.40
2019-02-04T02:32:30.801Z,98.50
2019-02-04T02:37:22.448Z,98.00
2019-02-04T02:42:13.589Z,98.00
2019-02-04T02:47:05.049Z,97.70
2019-02-04T02:51:58.640Z,98.80
2019-02-04T02:56:50.133Z,99.20
2019-02-04T03:01:41.489Z,99.80
2019-02-04T03:06:32.903Z,99.80
2019-02-04T03:11:24.266Z,99.90
2019-02-04T03:16:17.868Z,99.90
2019-02-04T03:21:09.330Z,98.30
2019-02-04T03:26:00.775Z,99.50
2019-02-04T03:30:52.099Z,99.90
2019-02-04T03:35:43.525Z,99.00
2019-02-04T03:40:34.887Z,98.10
2019-02-04T03:45:26.366Z,99.70
2019-02-04T03:50:17.635Z,99.90
2019-02-04T03:55:09.144Z,99.60
2019-02-04T04:00:02.626Z,98.90
2019-02-04T04:04:56.302Z,99.80
2019-02-04T04:09:48.465Z,99.90
2019-02-04T04:14:39.157Z,99.90
2019-02-04T04:19:30.618Z,99.90
2019-02-04T04:24:21.952Z,99.90
2019-02-04T04:29:13.306Z,99.90
2019-02-04T04:34:04.815Z,99.90
2019-02-04T04:38:56.105Z,99.90
2019-02-04T04:43:47.516Z,99.90
2019-02-04T04:48:38.870Z,99.90
2019-02-04T04:53:30.315Z,99.90
2019-02-04T04:58:21.704Z,99.90
2019-02-04T05:03:13.173Z,99.90
2019-02-04T05:08:04.500Z,99.90
2019-02-04T05:12:55.950Z,99.90
2019-02-04T05:17:47.323Z,99.90
2019-02-04T05:22:38.708Z,99.90
2019-02-04T05:27:32.311Z,99.90
2019-02-04T05:32:23.757Z,99.90
2019-02-04T05:37:15.166Z,99.90
2019-02-04T05:42:06.596Z,99.20
2019-02-04T05:46:57.954Z,99.70
2019-02-04T05:51:49.846Z,99.90
2019-02-04T05:56:45.389Z,99.90
2019-02-04T06:01:36.967Z,99.90
2019-02-04T06:06:28.294Z,99.90
2019-02-04T06:11:19.743Z,99.90
2019-02-04T06:16:11.074Z,99.90
2019-02-04T06:21:02.578Z,99.90
2019-02-04T06:25:53.895Z,99.90
2019-02-04T06:30:47.542Z,99.90
2019-02-04T06:35:46.051Z,99.90
2019-02-04T06:40:37.388Z,99.90
2019-02-04T06:45:28.713Z,99.90
2019-02-04T06:50:20.101Z,99.90
2019-02-04T06:55:11.564Z,99.90
2019-02-04T07:00:02.959Z,99.90
2019-02-04T07:04:56.508Z,99.90
2019-02-04T07:09:47.990Z,99.90
2019-02-04T07:14:39.464Z,99.90
2019-02-04T07:19:30.838Z,99.90
2019-02-04T07:24:24.473Z,99.90
2019-02-04T07:29:16.612Z,99.30
2019-02-04T07:34:07.311Z,99.60
2019-02-04T07:38:58.700Z,99.90
2019-02-04T07:43:50.121Z,99.90
2019-02-04T07:48:41.461Z,99.90
2019-02-04T07:53:35.118Z,99.90
2019-02-04T07:58:26.568Z,99.20
2019-02-04T08:03:18.039Z,99.90
2019-02-04T08:08:09.338Z,99.70
2019-02-04T08:13:03.034Z,99.20
2019-02-04T08:17:54.673Z,99.30
2019-02-04T08:22:45.911Z,99.30
2019-02-04T08:27:37.373Z,99.40
2019-02-04T08:32:28.742Z,99.60
2019-02-04T08:37:20.138Z,99.40
2019-02-04T08:42:11.466Z,99.50
2019-02-04T08:47:02.848Z,99.10
2019-02-04T08:51:54.936Z,99.30
2019-02-04T08:56:47.789Z,99.20
2019-02-04T09:01:39.438Z,99.70
2019-02-04T09:06:30.839Z,99.90
2019-02-04T09:11:22.402Z,98.90
2019-02-04T09:16:13.709Z,97.00
2019-02-04T09:21:05.128Z,96.00
2019-02-04T09:25:56.438Z,95.70
2019-02-04T09:30:47.917Z,96.20
2019-02-04T09:35:39.499Z,95.60
2019-02-04T09:40:31.021Z,92.80
2019-02-04T09:45:28.183Z,90.20
2019-02-04T09:50:22.466Z,88.90
2019-02-04T09:55:05.055Z,90.00
2019-02-04T09:59:56.704Z,89.80
2019-02-04T10:04:47.866Z,86.10
2019-02-04T10:09:39.294Z,86.20
2019-02-04T10:14:32.938Z,87.10
2019-02-04T10:19:24.484Z,86.40
2019-02-04T10:24:15.883Z,85.50
2019-02-04T10:29:07.366Z,66.60
2019-02-04T10:33:58.717Z,67.60
2019-02-04T10:38:50.314Z,71.70
2019-02-04T10:43:41.422Z,50.10
2019-02-04T10:48:32.876Z,54.30
2019-02-04T10:53:24.416Z,50.90
2019-02-04T10:58:16.412Z,47.50
2019-02-04T11:03:07.005Z,44.40
2019-02-04T11:07:58.556Z,48.20
2019-02-04T11:12:49.956Z,38.20
2019-02-04T11:22:32.686Z,44.00
2019-02-04T11:27:24.218Z,36.60
2019-02-04T11:32:15.588Z,36.60
2019-02-04T11:37:06.955Z,37.80
2019-02-04T11:41:58.463Z,38.80
2019-02-04T11:46:49.825Z,35.30
2019-02-04T11:51:41.139Z,34.70
2019-02-04T11:56:32.614Z,33.90
2019-02-04T12:01:24.429Z,33.40
2019-02-04T12:06:18.062Z,29.90
2019-02-04T12:11:06.708Z,29.60
2019-02-04T12:15:58.117Z,28.10
2019-02-04T12:20:50.250Z,25.90
2019-02-04T12:25:40.922Z,26.80
2019-02-04T12:30:34.694Z,26.90
2019-02-04T12:35:26.245Z,26.80
2019-02-04T12:40:17.598Z,28.30
2019-02-04T12:45:09.106Z,28.90
2019-02-04T12:50:01.045Z,27.30
2019-02-04T12:54:51.932Z,28.00
2019-02-04T12:59:45.688Z,25.80
2019-02-04T13:04:34.683Z,21.70
2019-02-04T13:09:26.279Z,25.00
2019-02-04T13:14:19.733Z,21.40
2019-02-04T13:19:11.188Z,21.40
2019-02-04T13:24:02.622Z,21.30
2019-02-04T13:28:54.085Z,24.50
2019-02-04T13:33:45.470Z,23.60
2019-02-04T13:38:36.825Z,25.70
2019-02-04T13:43:30.449Z,20.00
2019-02-04T13:48:22.083Z,20.10
2019-02-04T13:53:15.599Z,21.10
2019-02-04T13:58:07.054Z,20.90
2019-02-04T14:03:00.244Z,24.70
2019-02-04T14:07:49.870Z,23.70
2019-02-04T14:12:41.262Z,22.90
2019-02-04T14:17:34.896Z,23.90
2019-02-04T14:22:26.397Z,23.90
2019-02-04T14:27:17.856Z,24.30
2019-02-04T14:32:09.152Z,25.90
2019-02-04T14:37:00.622Z,26.00
2019-02-04T14:41:51.948Z,23.50
2019-02-04T14:46:43.527Z,25.30
2019-02-04T14:51:34.873Z,26.10
2019-02-04T14:56:26.935Z,23.60
2019-02-04T15:01:20.007Z,24.60
2019-02-04T15:06:11.493Z,23.60
2019-02-04T15:11:07.253Z,24.50
2019-02-04T15:15:59.637Z,24.60
2019-02-04T15:20:52.459Z,24.10
2019-02-04T15:25:44.002Z,23.50
2019-02-04T15:30:37.506Z,25.80
2019-02-04T15:40:22.554Z,28.80
2019-02-04T15:45:16.215Z,28.40
2019-02-04T15:50:07.683Z,29.40
2019-02-04T15:54:59.036Z,29.80
2019-02-04T15:59:50.398Z,31.60
2019-02-04T16:04:41.951Z,33.30
2019-02-04T16:09:33.279Z,34.90
2019-02-04T16:14:26.847Z,36.60
2019-02-04T16:19:18.333Z,37.40
2019-02-04T16:24:09.798Z,38.80
2019-02-04T16:29:03.289Z,40.30
2019-02-04T16:33:55.273Z,41.20
2019-02-04T16:38:46.161Z,41.30
2019-02-04T16:43:37.587Z,41.70
2019-02-04T16:48:28.969Z,42.70
2019-02-04T16:53:22.587Z,42.50
2019-02-04T16:58:14.040Z,44.40
2019-02-04T17:03:05.509Z,47.50
2019-02-04T17:07:56.820Z,48.70
2019-02-04T17:12:48.244Z,52.90
2019-02-04T17:17:39.600Z,52.50
2019-02-04T17:22:31.037Z,54.90
2019-02-04T17:27:22.419Z,55.50
2019-02-04T17:32:16.035Z,59.30
2019-02-04T17:37:07.540Z,61.40
2019-02-04T17:46:50.266Z,64.90
2019-02-04T17:51:42.543Z,65.60
2019-02-04T18:16:01.740Z,79.50
2019-02-04T18:20:52.415Z,81.40
2019-02-04T18:25:43.681Z,81.30
2019-02-04T18:50:06.287Z,83.60
2019-02-04T18:54:56.725Z,81.90
2019-02-04T18:59:48.380Z,79.30
2019-02-04T19:24:10.305Z,74.30
2019-02-04T19:28:56.577Z,73.60
2019-02-04T19:33:48.016Z,73.40
2019-02-04T19:53:13.436Z,75.20
2019-02-04T19:58:05.035Z,74.20
2019-02-04T20:02:56.294Z,74.40
2019-02-04T20:07:47.987Z,76.00
2019-02-04T20:22:21.851Z,73.60
2019-02-04T20:27:13.311Z,75.20
2019-02-04T20:36:56.431Z,75.80
2019-02-04T20:41:47.947Z,77.40
2019-02-04T21:01:15.790Z,81.20
2019-02-04T21:11:00.362Z,83.70
2019-02-04T21:15:51.827Z,85.50
2019-02-04T21:20:45.362Z,86.30
2019-02-04T21:35:19.721Z,85.70
2019-02-04T21:40:13.213Z,84.50
2019-02-04T21:45:04.754Z,86.00
2019-02-04T21:49:56.102Z,85.10
2019-02-04T21:54:47.935Z,84.30
2019-02-04T22:14:13.519Z,82.60
2019-02-04T22:28:54.074Z,80.50
2019-02-04T22:33:45.463Z,81.00
2019-02-04T22:58:02.522Z,81.40
2019-02-04T23:02:55.993Z,81.80
2019-02-04T23:07:49.634Z,81.50
2019-02-04T23:12:41.170Z,80.60
2019-02-04T23:32:06.757Z,82.00
2019-02-04T23:36:58.025Z,83.80
2019-02-04T23:41:49.608Z,82.20
2019-02-04T23:46:40.719Z,82.00
